createdAt,value
2023-05-20T03:59:06.163Z,1019.03
2023-05-20T04:00:06.104Z,1019.03
2023-05-20T04:01:06.103Z,1019.02
2023-05-20T04:02:06.200Z,1019.02
2023-05-20T04:03:06.168Z,1019.00
2023-05-20T04:04:06.090Z,1019.02
2023-05-20T04:05:06.078Z,1019.03
2023-05-20T04:06:06.055Z,1018.99
2023-05-20T04:07:06.060Z,1019.02
2023-05-20T04:08:06.030Z,1019.01
2023-05-20T04:09:06.028Z,1019.03
2023-05-20T04:10:06.032Z,1018.98
2023-05-20T04:11:06.035Z,1019.00
2023-05-20T04:12:06.017Z,1019.02
2023-05-20T04:13:06.021Z,1019.01
2023-05-20T04:14:06.044Z,1019.00
2023-05-20T04:15:06.020Z,1019.05
2023-05-20T04:16:05.997Z,1019.05
2023-05-20T04:17:06.204Z,1019.04
2023-05-20T04:18:06.035Z,1019.06
2023-05-20T04:19:06.038Z,1019.02
2023-05-20T04:20:05.989Z,1019.04
2023-05-20T04:21:05.985Z,1019.05
2023-05-20T04:22:05.960Z,1019.04
2023-05-20T04:23:05.967Z,1019.01
2023-05-20T04:24:05.971Z,1019.04
2023-05-20T04:25:05.978Z,1019.05
2023-05-20T04:26:05.978Z,1019.08
2023-05-20T04:27:05.970Z,1019.04
2023-05-20T04:28:05.980Z,1019.11
2023-05-20T04:29:05.954Z,1019.09
2023-05-20T04:30:05.984Z,1019.07
2023-05-20T04:31:06.093Z,1019.10
2023-05-20T04:32:06.080Z,1019.07
2023-05-20T04:33:06.003Z,1019.13
2023-05-20T04:34:05.934Z,1019.10
2023-05-20T04:35:05.939Z,1019.05
2023-05-20T04:36:05.921Z,1019.09
2023-05-20T04:37:05.914Z,1019.08
2023-05-20T04:38:05.937Z,1019.10
2023-05-20T04:39:05.920Z,1019.13
2023-05-20T04:40:05.919Z,1019.13
2023-05-20T04:41:05.907Z,1019.09
2023-05-20T04:42:05.903Z,1019.13
2023-05-20T04:43:05.939Z,1019.14
2023-05-20T04:44:05.923Z,1019.11
2023-05-20T04:45:05.962Z,1019.12
2023-05-20T04:46:05.944Z,1019.12
2023-05-20T04:47:05.897Z,1019.15
2023-05-20T04:48:05.929Z,1019.14
2023-05-20T04:49:05.909Z,1019.15
2023-05-20T04:50:05.900Z,1019.11
2023-05-20T04:51:05.919Z,1019.13
2023-05-20T04:52:05.874Z,1019.09
2023-05-20T04:53:05.863Z,1019.11
2023-05-20T04:54:05.894Z,1019.12
2023-05-20T04:55:05.864Z,1019.11
2023-05-20T04:56:05.894Z,1019.10
2023-05-20T04:57:05.846Z,1019.11
2023-05-20T04:58:05.867Z,1019.11
2023-05-20T04:59:05.855Z,1019.12
2023-05-20T05:00:05.866Z,1019.15
2023-05-20T05:01:05.895Z,1019.14
2023-05-20T05:02:05.849Z,1019.15
2023-05-20T05:03:05.908Z,1019.16
2023-05-20T05:04:05.862Z,1019.14
2023-05-20T05:05:05.952Z,1019.12
2023-05-20T05:06:05.853Z,1019.15
2023-05-20T05:07:05.821Z,1019.15
2023-05-20T05:08:05.816Z,1019.09
2023-05-20T05:09:05.826Z,1019.10
2023-05-20T05:10:05.824Z,1019.09
2023-05-20T05:11:05.816Z,1019.07
2023-05-20T05:12:05.807Z,1019.08
2023-05-20T05:13:05.830Z,1019.07
2023-05-20T05:14:05.797Z,1019.05
2023-05-20T05:15:05.819Z,1019.09
2023-05-20T05:16:05.854Z,1019.06
2023-05-20T05:17:05.800Z,1019.07
2023-05-20T05:18:05.891Z,1019.07
2023-05-20T05:19:05.857Z,1019.08
2023-05-20T05:20:05.804Z,1019.11
2023-05-20T05:21:05.798Z,1019.08
2023-05-20T05:22:05.774Z,1019.08
2023-05-20T05:23:05.771Z,1019.07
2023-05-20T05:24:05.809Z,1019.11
2023-05-20T05:25:05.796Z,1019.10
2023-05-20T05:26:05.786Z,1019.10
2023-05-20T05:27:05.797Z,1019.11
2023-05-20T05:28:05.785Z,1019.11
2023-05-20T05:29:05.762Z,1019.07
2023-05-20T05:30:05.775Z,1019.07
2023-05-20T05:31:05.811Z,1019.07
2023-05-20T05:32:05.774Z,1019.05
2023-05-20T05:33:05.938Z,1019.06
2023-05-20T05:34:05.745Z,1019.01
2023-05-20T05:35:08.053Z,1019.02
2023-05-20T05:36:05.740Z,1018.98
2023-05-20T05:37:05.755Z,1018.99
2023-05-20T05:38:05.742Z,1018.95
2023-05-20T05:39:05.725Z,1018.93
2023-05-20T05:40:05.733Z,1018.93
2023-05-20T05:41:05.715Z,1018.95
2023-05-20T05:42:05.727Z,1018.93
2023-05-20T05:43:05.719Z,1018.94
2023-05-20T05:44:05.743Z,1018.91
2023-05-20T05:45:05.746Z,1018.89
2023-05-20T05:46:05.748Z,1018.89
2023-05-20T05:47:05.845Z,1018.90
2023-05-20T05:48:05.817Z,1018.89
2023-05-20T05:49:05.712Z,1018.88
2023-05-20T05:50:05.725Z,1018.91
2023-05-20T05:51:05.759Z,1018.93
2023-05-20T05:52:05.701Z,1018.92
2023-05-20T05:53:05.700Z,1018.93
2023-05-20T05:54:05.746Z,1018.91
2023-05-20T05:55:05.706Z,1018.90
2023-05-20T05:56:05.722Z,1018.93
2023-05-20T05:57:06.602Z,1018.95
2023-05-20T05:58:05.698Z,1018.94
2023-05-20T05:59:05.677Z,1018.94
2023-05-20T06:00:05.678Z,1018.94
2023-05-20T06:01:05.724Z,1018.96
2023-05-20T06:02:05.690Z,1018.96
2023-05-20T06:03:05.769Z,1018.99
2023-05-20T06:04:05.754Z,1018.97
2023-05-20T06:05:05.665Z,1019.03
2023-05-20T06:06:05.688Z,1018.97
2023-05-20T06:07:05.684Z,1019.00
2023-05-20T06:08:05.694Z,1018.99
2023-05-20T06:09:05.661Z,1019.01
2023-05-20T06:10:05.651Z,1019.01
2023-05-20T06:11:05.677Z,1019.02
2023-05-20T06:12:05.655Z,1018.98
2023-05-20T06:13:05.655Z,1019.02
2023-05-20T06:14:05.641Z,1019.01
2023-05-20T06:15:05.645Z,1018.98
2023-05-20T06:16:05.665Z,1018.96
2023-05-20T06:17:05.750Z,1018.99
2023-05-20T06:18:05.669Z,1018.98
2023-05-20T06:19:05.750Z,1018.95
2023-05-20T06:20:05.657Z,1018.95
2023-05-20T06:21:05.643Z,1018.97
2023-05-20T06:22:05.628Z,1018.97
2023-05-20T06:23:05.675Z,1018.90
2023-05-20T06:24:05.644Z,1018.92
2023-05-20T06:25:05.622Z,1018.90
2023-05-20T06:26:05.624Z,1018.91
2023-05-20T06:27:05.628Z,1018.88
2023-05-20T06:28:05.615Z,1018.89
2023-05-20T06:29:05.617Z,1018.88
2023-05-20T06:30:05.616Z,1018.87
2023-05-20T06:31:05.644Z,1018.82
2023-05-20T06:32:05.608Z,1018.84
2023-05-20T06:33:05.721Z,1018.83
2023-05-20T06:34:05.609Z,1018.82
2023-05-20T06:35:05.614Z,1018.79
2023-05-20T06:36:05.617Z,1018.81
2023-05-20T06:37:05.599Z,1018.77
2023-05-20T06:38:05.631Z,1018.75
2023-05-20T06:39:05.628Z,1018.78
2023-05-20T06:40:05.605Z,1018.79
2023-05-20T06:41:05.592Z,1018.76
2023-05-20T06:42:05.639Z,1018.73
2023-05-20T06:43:05.609Z,1018.80
2023-05-20T06:44:05.582Z,1018.77
2023-05-20T06:45:05.595Z,1018.76
2023-05-20T06:46:05.602Z,1018.76
2023-05-20T06:47:05.596Z,1018.75
2023-05-20T06:48:05.690Z,1018.74
2023-05-20T06:49:05.641Z,1018.78
2023-05-20T06:50:05.575Z,1018.67
2023-05-20T06:51:05.630Z,1018.71
2023-05-20T06:53:38.120Z,1018.67
2023-05-20T06:54:38.133Z,1018.62
2023-05-20T06:55:38.098Z,1018.65
2023-05-20T06:56:38.093Z,1018.62
2023-05-20T06:57:38.105Z,1018.60
2023-05-20T06:58:38.108Z,1018.63
2023-05-20T06:59:38.104Z,1018.60
2023-05-20T07:00:38.095Z,1018.60
2023-05-20T07:01:38.141Z,1018.60
2023-05-20T07:02:38.113Z,1018.56
2023-05-20T07:03:38.153Z,1018.63
2023-05-20T07:04:38.092Z,1018.57
2023-05-20T07:05:38.099Z,1018.57
2023-05-20T07:06:38.124Z,1018.60
2023-05-20T07:07:38.085Z,1018.61
2023-05-20T07:08:38.077Z,1018.61
2023-05-20T07:09:38.092Z,1018.61
2023-05-20T07:10:38.118Z,1018.54
2023-05-20T07:11:38.092Z,1018.59
2023-05-20T07:12:38.084Z,1018.57
2023-05-20T07:13:38.086Z,1018.53
2023-05-20T07:14:38.073Z,1018.54
2023-05-20T07:15:38.102Z,1018.43
2023-05-20T07:16:38.087Z,1018.56
2023-05-20T07:17:38.127Z,1018.52
2023-05-20T07:18:38.096Z,1018.54
2023-05-20T07:19:38.087Z,1018.47
2023-05-20T07:20:38.108Z,1018.43
2023-05-20T07:21:38.080Z,1018.52
2023-05-20T07:22:38.072Z,1018.47
2023-05-20T07:23:38.095Z,1018.50
2023-05-20T07:24:38.075Z,1018.51
2023-05-20T07:25:38.097Z,1018.47
2023-05-20T07:26:38.765Z,1018.54
2023-05-20T07:27:38.073Z,1018.53
2023-05-20T07:28:38.076Z,1018.51
2023-05-20T07:29:38.070Z,1018.52
2023-05-20T07:30:38.082Z,1018.49
2023-05-20T07:31:38.128Z,1018.54
2023-05-20T07:32:38.141Z,1018.45
2023-05-20T07:33:38.081Z,1018.46
2023-05-20T07:34:38.116Z,1018.44
2023-05-20T07:35:38.091Z,1018.40
2023-05-20T07:36:38.062Z,1018.43
2023-05-20T07:37:38.092Z,1018.44
2023-05-20T07:38:39.545Z,1018.40
2023-05-20T07:39:38.069Z,1018.39
2023-05-20T07:40:38.072Z,1018.38
2023-05-20T07:41:38.068Z,1018.37
2023-05-20T07:42:38.083Z,1018.36
2023-05-20T07:43:38.087Z,1018.36
2023-05-20T07:44:38.068Z,1018.39
2023-05-20T07:45:38.140Z,1018.36
2023-05-20T07:46:38.168Z,1018.37
2023-05-20T07:47:38.126Z,1018.37
2023-05-20T07:48:38.103Z,1018.40
2023-05-20T07:49:38.107Z,1018.36
2023-05-20T07:50:38.112Z,1018.32
2023-05-20T07:51:38.106Z,1018.39
2023-05-20T07:52:51.750Z,1018.35
2023-05-20T07:53:38.062Z,1018.35
2023-05-20T07:54:38.108Z,1018.41
2023-05-20T07:55:38.071Z,1018.35
2023-05-20T07:56:38.072Z,1018.38
2023-05-20T07:57:38.085Z,1018.41
2023-05-20T07:58:38.069Z,1018.32
2023-05-20T07:59:38.079Z,1018.29
2023-05-20T08:00:38.069Z,1018.34
2023-05-20T08:01:38.088Z,1018.33
2023-05-20T08:02:38.182Z,1018.32
2023-05-20T08:03:38.251Z,1018.34
2023-05-20T08:04:38.109Z,1018.31
2023-05-20T08:05:38.066Z,1018.27
2023-05-20T08:06:38.057Z,1018.27
2023-05-20T08:07:38.090Z,1018.37
2023-05-20T08:08:38.073Z,1018.21
2023-05-20T08:09:38.070Z,1018.22
2023-05-20T08:10:38.070Z,1018.23
2023-05-20T08:11:38.075Z,1018.22
2023-05-20T08:12:38.055Z,1018.23
2023-05-20T08:13:38.060Z,1018.23
2023-05-20T08:14:38.074Z,1018.25
2023-05-20T08:15:38.085Z,1018.22
2023-05-20T08:16:38.112Z,1018.14
2023-05-20T08:17:39.019Z,1018.18
2023-05-20T08:18:38.118Z,1018.12
2023-05-20T08:19:38.097Z,1018.12
2023-05-20T08:20:38.079Z,1018.10
2023-05-20T08:21:38.058Z,1018.05
2023-05-20T08:22:38.060Z,1018.09
2023-05-20T08:23:40.368Z,1018.07
2023-05-20T08:24:38.098Z,1018.02
2023-05-20T08:25:38.070Z,1018.11
2023-05-20T08:26:38.072Z,1018.01
2023-05-20T08:27:38.065Z,1018.01
2023-05-20T08:28:38.151Z,1018.03
2023-05-20T08:29:38.073Z,1018.07
2023-05-20T08:30:38.081Z,1018.11
2023-05-20T08:31:38.226Z,1018.03
2023-05-20T08:32:38.078Z,1018.04
2023-05-20T08:33:38.064Z,1018.05
2023-05-20T08:34:38.083Z,1018.05
2023-05-20T08:35:38.100Z,1018.04
2023-05-20T08:36:38.090Z,1018.02
2023-05-20T08:37:38.092Z,1018.09
2023-05-20T08:38:38.083Z,1018.12
2023-05-20T08:39:38.112Z,1018.02
2023-05-20T08:40:38.074Z,1018.02
2023-05-20T08:41:38.065Z,1018.01
2023-05-20T08:42:38.083Z,1018.00
2023-05-20T08:43:38.053Z,1017.99
2023-05-20T08:44:38.071Z,1017.99
2023-05-20T08:45:38.075Z,1017.99
2023-05-20T08:46:38.183Z,1018.05
2023-05-20T08:47:38.103Z,1017.99
2023-05-20T08:48:38.127Z,1017.92
2023-05-20T08:49:38.100Z,1017.95
2023-05-20T08:50:38.086Z,1017.90
2023-05-20T08:51:38.093Z,1017.91
2023-05-20T08:52:38.087Z,1017.94
2023-05-20T08:53:38.114Z,1017.92
2023-05-20T08:54:38.083Z,1017.96
2023-05-20T08:55:38.112Z,1018.07
2023-05-20T08:56:38.083Z,1017.94
2023-05-20T08:57:38.098Z,1017.93
2023-05-20T08:58:38.121Z,1017.94
2023-05-20T08:59:38.083Z,1017.92
2023-05-20T09:00:38.088Z,1017.99
2023-05-20T09:01:38.124Z,1017.94
2023-05-20T09:02:38.175Z,1017.84
2023-05-20T09:03:38.135Z,1017.85
2023-05-20T09:04:38.121Z,1017.82
2023-05-20T09:05:38.090Z,1017.82
2023-05-20T09:06:38.113Z,1017.83
2023-05-20T09:07:38.097Z,1017.83
2023-05-20T09:09:38.099Z,1017.82
2023-05-20T09:10:38.090Z,1017.76
2023-05-20T09:11:38.088Z,1017.73
2023-05-20T09:12:38.099Z,1017.74
2023-05-20T09:13:38.146Z,1017.77
2023-05-20T09:14:38.092Z,1017.79
2023-05-20T09:15:38.098Z,1017.74
2023-05-20T09:16:38.181Z,1017.78
2023-05-20T09:17:38.137Z,1017.73
2023-05-20T09:18:38.113Z,1017.77
2023-05-20T09:19:38.119Z,1017.73
2023-05-20T09:20:38.127Z,1017.70
2023-05-20T09:21:38.095Z,1017.73
2023-05-20T09:22:38.090Z,1017.70
2023-05-20T09:23:38.101Z,1017.76
2023-05-20T09:24:38.101Z,1017.62
2023-05-20T09:25:38.127Z,1017.62
2023-05-20T09:26:38.101Z,1017.65
2023-05-20T09:27:38.103Z,1017.62
2023-05-20T09:28:38.092Z,1017.69
2023-05-20T09:29:38.125Z,1017.64
2023-05-20T09:30:38.106Z,1017.76
2023-05-20T09:31:38.126Z,1017.74
2023-05-20T09:32:38.181Z,1017.66
2023-05-20T09:33:38.113Z,1017.71
2023-05-20T09:34:38.114Z,1017.66
2023-05-20T09:35:38.134Z,1017.75
2023-05-20T09:36:38.128Z,1017.69
2023-05-20T09:37:38.102Z,1017.74
2023-05-20T09:38:38.291Z,1017.72
2023-05-20T09:39:38.097Z,1017.72
2023-05-20T09:40:38.191Z,1017.71
2023-05-20T09:41:38.121Z,1017.75
2023-05-20T09:42:38.122Z,1017.67
2023-05-20T09:43:38.119Z,1017.59
2023-05-20T09:44:38.128Z,1017.64
2023-05-20T09:45:38.146Z,1017.61
2023-05-20T09:46:38.179Z,1017.65
2023-05-20T09:47:38.181Z,1017.56
2023-05-20T09:48:38.140Z,1017.60
2023-05-20T09:49:38.130Z,1017.55
2023-05-20T09:50:38.131Z,1017.55
2023-05-20T09:51:38.129Z,1017.58
2023-05-20T09:52:38.171Z,1017.51
2023-05-20T09:53:38.156Z,1017.59
2023-05-20T09:54:38.117Z,1017.56
2023-05-20T09:55:38.253Z,1017.58
2023-05-20T09:56:38.121Z,1017.56
2023-05-20T09:57:38.128Z,1017.54
2023-05-20T09:58:38.157Z,1017.52
2023-05-20T09:59:38.145Z,1017.52
2023-05-20T10:00:38.131Z,1017.51
2023-05-20T10:01:38.154Z,1017.57
2023-05-20T10:13:25.584Z,1017.45
2023-05-20T10:14:25.524Z,1017.40
2023-05-20T10:15:25.521Z,1017.39
2023-05-20T10:16:25.554Z,1017.31
2023-05-20T10:17:25.601Z,1017.39
2023-05-20T10:18:25.490Z,1017.42
2023-05-20T10:19:25.577Z,1017.35
2023-05-20T10:20:25.498Z,1017.31
2023-05-20T10:21:25.491Z,1017.36
2023-05-20T10:22:25.492Z,1017.37
2023-05-20T10:23:25.529Z,1017.34
2023-05-20T10:24:25.514Z,1017.29
2023-05-20T10:25:25.515Z,1017.29
2023-05-20T10:26:25.514Z,1017.24
2023-05-20T10:27:25.500Z,1017.31
2023-05-20T10:28:25.506Z,1017.30
2023-05-20T10:29:25.538Z,1017.29
2023-05-20T10:30:25.515Z,1017.28
2023-05-20T10:31:25.529Z,1017.24
2023-05-20T10:32:25.572Z,1017.32
2023-05-20T10:33:25.525Z,1017.34
2023-05-20T10:34:25.504Z,1017.29
2023-05-20T10:35:25.507Z,1017.36
2023-05-20T10:36:25.525Z,1017.36
2023-05-20T10:37:25.529Z,1017.29
2023-05-20T10:38:25.531Z,1017.28
2023-05-20T10:39:25.513Z,1017.35
2023-05-20T10:40:25.541Z,1017.30
2023-05-20T10:41:25.534Z,1017.28
2023-05-20T10:42:25.520Z,1017.28
2023-05-20T10:43:25.520Z,1017.30
2023-05-20T10:44:25.534Z,1017.28
2023-05-20T10:45:25.557Z,1017.26
2023-05-20T10:46:34.964Z,1017.38
2023-05-20T10:47:26.471Z,1017.37
2023-05-20T10:48:25.622Z,1017.28
2023-05-20T10:49:27.750Z,1017.35
2023-05-20T10:50:25.555Z,1017.29
2023-05-20T10:51:25.552Z,1017.34
2023-05-20T10:52:25.578Z,1017.34
2023-05-20T10:53:33.535Z,1017.38
2023-05-20T10:54:25.573Z,1017.31
2023-05-20T10:55:25.562Z,1017.33
2023-05-20T10:56:25.573Z,1017.33
2023-05-20T10:57:25.554Z,1017.30
2023-05-20T10:58:25.558Z,1017.28
2023-05-20T10:59:25.570Z,1017.25
2023-05-20T11:00:25.585Z,1017.32
2023-05-20T11:01:25.679Z,1017.31
2023-05-20T11:02:25.576Z,1017.22
2023-05-20T11:03:25.674Z,1017.25
2023-05-20T11:04:25.574Z,1017.24
2023-05-20T11:05:25.570Z,1017.30
2023-05-20T11:06:25.581Z,1017.19
2023-05-20T11:07:25.567Z,1017.16
2023-05-20T11:08:29.502Z,1017.17
2023-05-20T11:09:25.578Z,1017.15
2023-05-20T11:10:25.584Z,1017.14
2023-05-20T11:11:25.608Z,1017.09
2023-05-20T11:12:25.596Z,1017.12
2023-05-20T11:13:25.867Z,1017.07
2023-05-20T11:14:25.601Z,1017.09
2023-05-20T11:15:25.615Z,1017.14
2023-05-20T11:16:25.683Z,1017.11
2023-05-20T11:17:25.644Z,1017.09
2023-05-20T11:18:25.594Z,1017.03
2023-05-20T11:19:25.696Z,1017.08
2023-05-20T11:20:25.601Z,1016.97
2023-05-20T11:21:25.609Z,1017.02
2023-05-20T11:22:25.636Z,1016.96
2023-05-20T11:23:25.636Z,1016.99
2023-05-20T11:24:25.649Z,1017.03
2023-05-20T11:25:25.640Z,1016.97
2023-05-20T11:26:25.623Z,1016.98
2023-05-20T11:27:25.621Z,1016.95
2023-05-20T11:28:25.711Z,1016.96
2023-05-20T11:29:25.624Z,1016.96
2023-05-20T11:30:25.650Z,1017.02
2023-05-20T11:31:25.721Z,1016.97
2023-05-20T11:32:25.815Z,1016.99
2023-05-20T11:33:25.665Z,1016.96
2023-05-20T11:34:27.284Z,1016.99
2023-05-20T11:35:25.650Z,1016.88
2023-05-20T11:36:28.174Z,1016.95
2023-05-20T11:37:25.647Z,1016.97
2023-05-20T11:38:25.658Z,1016.89
2023-05-20T11:39:25.668Z,1016.90
2023-05-20T11:40:27.108Z,1016.91
2023-05-20T11:41:25.658Z,1016.91
2023-05-20T11:42:25.684Z,1016.96
2023-05-20T11:43:25.665Z,1016.93
2023-05-20T11:44:25.683Z,1016.92
2023-05-20T11:45:25.681Z,1016.90
2023-05-20T11:46:25.706Z,1016.88
2023-05-20T11:47:25.726Z,1016.87
2023-05-20T11:48:25.698Z,1016.86
2023-05-20T11:49:25.705Z,1016.84
2023-05-20T11:50:25.671Z,1016.84
2023-05-20T11:51:25.686Z,1016.88
2023-05-20T11:52:25.706Z,1016.89
2023-05-20T11:53:25.688Z,1016.84
2023-05-20T11:54:25.692Z,1016.85
2023-05-20T11:55:25.693Z,1016.80
2023-05-20T11:56:25.704Z,1016.87
2023-05-20T11:57:25.736Z,1016.86
2023-05-20T11:58:25.711Z,1016.94
2023-05-20T11:59:25.722Z,1016.96
2023-05-20T12:00:27.637Z,1016.94
2023-05-20T12:01:25.999Z,1016.95
2023-05-20T12:02:25.777Z,1017.02
2023-05-20T12:03:25.879Z,1017.03
2023-05-20T12:04:25.779Z,1016.99
2023-05-20T12:05:25.725Z,1017.00
2023-05-20T12:06:25.704Z,1017.00
2023-05-20T12:07:25.700Z,1016.95
2023-05-20T12:08:25.737Z,1016.96
2023-05-20T12:09:25.714Z,1016.91
2023-05-20T12:10:25.697Z,1016.90
2023-05-20T12:11:25.705Z,1016.94
2023-05-20T12:12:25.707Z,1016.92
2023-05-20T12:13:25.728Z,1016.93
2023-05-20T12:14:25.708Z,1016.89
2023-05-20T12:15:25.704Z,1016.89
2023-05-20T12:16:25.752Z,1016.86
2023-05-20T12:17:25.752Z,1016.84
2023-05-20T12:18:25.718Z,1016.93
2023-05-20T12:19:25.801Z,1016.89
2023-05-20T12:20:25.707Z,1016.83
2023-05-20T12:21:25.769Z,1016.79
2023-05-20T12:22:25.743Z,1016.85
2023-05-20T12:23:25.725Z,1016.75
2023-05-20T12:24:25.733Z,1016.76
2023-05-20T12:25:25.721Z,1016.76
2023-05-20T12:26:25.779Z,1016.73
2023-05-20T12:27:25.724Z,1016.78
2023-05-20T12:28:25.741Z,1016.73
2023-05-20T12:29:25.738Z,1016.77
2023-05-20T12:30:25.738Z,1016.78
2023-05-20T12:31:25.776Z,1016.76
2023-05-20T12:32:25.754Z,1016.70
2023-05-20T12:33:25.717Z,1016.70
2023-05-20T12:34:25.753Z,1016.71
2023-05-20T12:35:25.745Z,1016.62
2023-05-20T12:36:25.730Z,1016.64
2023-05-20T12:37:25.737Z,1016.61
2023-05-20T12:38:25.742Z,1016.61
2023-05-20T12:39:25.781Z,1016.59
2023-05-20T12:40:25.720Z,1016.61
2023-05-20T12:41:25.720Z,1016.59
2023-05-20T12:42:25.727Z,1016.62
2023-05-20T12:43:25.733Z,1016.59
2023-05-20T12:44:25.744Z,1016.59
2023-05-20T12:45:25.727Z,1016.66
2023-05-20T12:46:25.748Z,1016.62
2023-05-20T12:47:25.833Z,1016.59
2023-05-20T12:48:25.728Z,1016.64
2023-05-20T12:49:25.736Z,1016.61
2023-05-20T12:50:25.755Z,1016.61
2023-05-20T12:51:25.743Z,1016.56
2023-05-20T12:52:25.744Z,1016.57
2023-05-20T12:53:25.769Z,1016.54
2023-05-20T12:54:25.756Z,1016.52
2023-05-20T12:55:25.898Z,1016.59
2023-05-20T12:56:25.734Z,1016.52
2023-05-20T12:57:25.737Z,1016.51
2023-05-20T12:58:25.735Z,1016.46
2023-05-20T12:59:25.749Z,1016.46
2023-05-20T13:00:25.755Z,1016.46
2023-05-20T13:01:25.787Z,1016.45
2023-05-20T13:02:25.840Z,1016.46
2023-05-20T13:03:25.776Z,1016.45
2023-05-20T13:04:25.748Z,1016.47
2023-05-20T13:05:25.766Z,1016.50
2023-05-20T13:06:25.742Z,1016.44
2023-05-20T13:07:25.759Z,1016.41
2023-05-20T13:08:26.622Z,1016.44
2023-05-20T13:09:25.761Z,1016.43
2023-05-20T13:10:25.766Z,1016.41
2023-05-20T13:11:25.775Z,1016.37
2023-05-20T13:12:25.758Z,1016.39
2023-05-20T13:13:25.772Z,1016.38
2023-05-20T13:14:25.782Z,1016.37
2023-05-20T13:15:25.776Z,1016.33
2023-05-20T13:16:25.834Z,1016.32
2023-05-20T13:17:25.791Z,1016.32
2023-05-20T13:18:25.755Z,1016.29
2023-05-20T13:19:25.814Z,1016.32
2023-05-20T13:20:25.763Z,1016.27
2023-05-20T13:21:25.756Z,1016.27
2023-05-20T13:22:25.780Z,1016.27
2023-05-20T13:23:25.773Z,1016.15
2023-05-20T13:24:25.762Z,1016.13
2023-05-20T13:25:25.784Z,1016.06
2023-05-20T13:26:25.769Z,1016.11
2023-05-20T13:27:25.819Z,1016.07
2023-05-20T13:28:25.771Z,1016.09
2023-05-20T13:29:25.776Z,1016.13
2023-05-20T13:30:25.781Z,1016.12
2023-05-20T13:31:25.845Z,1016.07
2023-05-20T13:32:25.832Z,1016.05
2023-05-20T13:33:25.784Z,1016.04
2023-05-20T13:34:25.781Z,1015.99
2023-05-20T13:35:25.788Z,1016.01
2023-05-20T13:36:25.792Z,1015.97
2023-05-20T13:37:25.820Z,1015.97
2023-05-20T13:38:25.802Z,1015.88
2023-05-20T13:39:25.792Z,1015.94
2023-05-20T13:40:25.801Z,1015.86
2023-05-20T13:41:25.828Z,1015.86
2023-05-20T13:42:25.815Z,1015.95
2023-05-20T13:43:25.821Z,1015.92
2023-05-20T13:44:25.834Z,1015.95
2023-05-20T13:45:25.847Z,1015.92
2023-05-20T13:46:25.827Z,1015.91
2023-05-20T13:47:25.954Z,1015.93
2023-05-20T13:48:25.828Z,1015.90
2023-05-20T13:49:25.829Z,1015.93
2023-05-20T13:50:25.819Z,1015.87
2023-05-20T13:51:25.841Z,1015.88
2023-05-20T13:52:25.878Z,1015.85
2023-05-20T13:53:25.840Z,1015.82
2023-05-20T13:54:25.891Z,1015.80
2023-05-20T13:55:25.847Z,1015.85
2023-05-20T13:56:25.872Z,1015.78
2023-05-20T13:57:25.917Z,1015.76
2023-05-20T14:19:52.192Z,1015.48
2023-05-20T14:20:52.111Z,1015.50
2023-05-20T14:21:52.108Z,1015.44
2023-05-20T14:22:52.130Z,1015.53
2023-05-20T14:23:52.121Z,1015.48
2023-05-20T14:24:52.118Z,1015.46
2023-05-20T14:25:52.109Z,1015.48
2023-05-20T14:26:52.117Z,1015.45
2023-05-20T14:27:52.136Z,1015.46
2023-05-20T14:28:52.136Z,1015.46
2023-05-20T14:29:52.136Z,1015.50
2023-05-20T14:30:52.139Z,1015.51
2023-05-20T14:31:52.212Z,1015.60
2023-05-20T14:32:52.207Z,1015.51
2023-05-20T14:33:52.161Z,1015.52
2023-05-20T14:34:52.158Z,1015.49
2023-05-20T14:35:52.192Z,1015.49
2023-05-20T14:36:52.142Z,1015.47
2023-05-20T14:37:52.178Z,1015.53
2023-05-20T14:38:52.176Z,1015.50
2023-05-20T14:39:52.162Z,1015.48
2023-05-20T14:40:52.163Z,1015.47
2023-05-20T14:41:52.172Z,1015.47
2023-05-20T14:42:52.166Z,1015.42
2023-05-20T14:43:52.170Z,1015.41
2023-05-20T14:44:52.209Z,1015.38
2023-05-20T14:45:52.236Z,1015.34
2023-05-20T14:46:52.213Z,1015.41
2023-05-20T14:47:52.296Z,1015.36
2023-05-20T14:48:52.227Z,1015.33
2023-05-20T14:49:52.186Z,1015.36
2023-05-20T14:50:52.210Z,1015.32
2023-05-20T14:51:52.219Z,1015.30
2023-05-20T14:52:52.181Z,1015.37
2023-05-20T14:53:52.213Z,1015.29
2023-05-20T14:54:52.193Z,1015.29
2023-05-20T14:55:52.202Z,1015.32
2023-05-20T14:56:52.196Z,1015.33
2023-05-20T14:57:52.205Z,1015.28
2023-05-20T14:58:52.221Z,1015.26
2023-05-20T14:59:52.200Z,1015.21
2023-05-20T15:00:52.223Z,1015.19
2023-05-20T15:01:52.267Z,1015.19
2023-05-20T15:02:52.268Z,1015.14
2023-05-20T15:03:52.204Z,1015.19
2023-05-20T15:04:52.226Z,1015.18
2023-05-20T15:05:52.212Z,1015.17
2023-05-20T15:06:52.213Z,1015.16
2023-05-20T15:07:52.252Z,1015.16
2023-05-20T15:08:52.217Z,1015.18
2023-05-20T15:09:52.241Z,1015.21
2023-05-20T15:10:52.221Z,1015.18
2023-05-20T15:11:52.227Z,1015.21
2023-05-20T15:12:52.219Z,1015.25
2023-05-20T15:13:52.263Z,1015.19
2023-05-20T15:14:52.233Z,1015.23
2023-05-20T15:15:52.223Z,1015.22
2023-05-20T15:16:52.264Z,1015.19
2023-05-20T15:17:52.300Z,1015.26
2023-05-20T15:18:52.265Z,1015.31
2023-05-20T15:19:52.242Z,1015.28
2023-05-20T15:20:52.236Z,1015.31
2023-05-20T15:21:52.226Z,1015.33
2023-05-20T15:22:52.247Z,1015.33
2023-05-20T15:23:52.289Z,1015.33
2023-05-20T15:24:52.249Z,1015.30
2023-05-20T15:25:52.238Z,1015.34
2023-05-20T15:26:52.235Z,1015.32
2023-05-20T15:27:52.256Z,1015.33
2023-05-20T15:28:52.263Z,1015.37
2023-05-20T15:29:52.245Z,1015.36
2023-05-20T15:30:52.255Z,1015.30
2023-05-20T15:31:52.242Z,1015.31
2023-05-20T15:32:52.271Z,1015.27
2023-05-20T15:33:52.283Z,1015.28
2023-05-20T15:34:52.244Z,1015.25
2023-05-20T15:35:52.260Z,1015.21
2023-05-20T15:36:52.257Z,1015.28
2023-05-20T15:37:52.247Z,1015.23
2023-05-20T15:38:52.268Z,1015.27
2023-05-20T15:39:52.278Z,1015.22
2023-05-20T15:40:52.246Z,1015.30
2023-05-20T15:41:52.247Z,1015.25
2023-05-20T15:42:52.249Z,1015.25
2023-05-20T15:43:52.278Z,1015.24
2023-05-20T15:44:52.270Z,1015.23
2023-05-20T15:45:52.293Z,1015.22
2023-05-20T15:46:52.244Z,1015.22
2023-05-20T15:47:52.295Z,1015.20
2023-05-20T15:48:52.252Z,1015.21
2023-05-20T15:49:52.246Z,1015.17
2023-05-20T15:50:52.252Z,1015.17
2023-05-20T15:52:02.339Z,1015.14
2023-05-20T15:52:52.334Z,1015.16
2023-05-20T15:53:52.264Z,1015.12
2023-05-20T15:54:52.250Z,1015.11
2023-05-20T15:55:52.292Z,1015.09
2023-05-20T15:56:52.252Z,1015.10
2023-05-20T15:57:52.270Z,1015.04
2023-05-20T15:58:52.258Z,1015.08
2023-05-20T15:59:52.266Z,1015.06
2023-05-20T16:00:52.256Z,1015.03
2023-05-20T16:01:52.279Z,1015.07
2023-05-20T16:02:52.319Z,1014.98
2023-05-20T16:03:54.546Z,1015.02
2023-05-20T16:04:52.304Z,1015.00
2023-05-20T16:05:52.273Z,1015.01
2023-05-20T16:06:52.247Z,1015.01
2023-05-20T16:07:52.254Z,1014.99
2023-05-20T16:08:52.271Z,1015.02
2023-05-20T16:09:52.260Z,1015.05
2023-05-20T16:10:52.272Z,1015.04
2023-05-20T16:11:52.266Z,1015.00
2023-05-20T16:12:52.249Z,1015.03
2023-05-20T16:13:52.275Z,1015.04
2023-05-20T16:14:52.275Z,1015.05
2023-05-20T16:15:52.385Z,1015.00
2023-05-20T16:16:52.264Z,1014.99
2023-05-20T16:28:29.987Z,1014.87
2023-05-20T16:29:29.961Z,1014.90
2023-05-20T16:30:29.950Z,1014.91
2023-05-20T16:31:29.999Z,1014.87
2023-05-20T16:32:30.050Z,1014.83
2023-05-20T16:33:29.934Z,1014.89
2023-05-20T16:34:29.961Z,1014.83
2023-05-20T16:35:29.930Z,1014.89
2023-05-20T16:36:29.928Z,1014.83
2023-05-20T16:37:29.953Z,1014.82
2023-05-20T16:38:29.926Z,1014.82
2023-05-20T16:39:29.918Z,1014.85
2023-05-20T16:40:29.926Z,1014.80
2023-05-20T16:41:29.928Z,1014.78
2023-05-20T16:42:29.925Z,1014.81
2023-05-20T16:43:29.926Z,1014.83
2023-05-20T16:44:29.943Z,1014.87
2023-05-20T16:45:29.941Z,1014.84
2023-05-20T16:46:29.941Z,1014.83
2023-05-20T16:47:29.930Z,1014.83
2023-05-20T16:48:29.912Z,1014.84
2023-05-20T16:49:29.939Z,1014.84